Météo Nord-Pas-de-Calais   La météo au plus près de chez vous

Station météorologique

Observations météo à Evreux-Huest (27347)

27347001 138 m Dernier relevé à 14:06
21°C
Humidité 59 % Vent 14 km/h 1025.8 hPa

Journée consultée

Samedi 5 Septembre 2026

Synthèse de la journée

Périodes de référence en UTC

Température maximale

21.3°C

à 14:00

06h 06h

Température minimale

12.8°C

à 07:00

18h 18h

Rafale maximale

26 km/h

à 11:12

00h 00h

Précipitations

0 mm

Cumul quotidien

06h 06h

Graphiques de la journée

Heure locale Réduire

Données détaillées

Relevés météo

Pas de 6 minutes Afficher les relevés infra-horaires
Relevés météo détaillés à Evreux-Huest pour le Samedi 5 Septembre 2026
Heure Température °C Point de rosée °C Humidité % Vent moyen (raf.), km/h Précipitations mm Température à 10 cm °C Température à 20 cm °C Température à 50 cm °C Température à 100 cm °C Visibilité m Hauteur neige cm Pression hPa Nébulosité Octas
14:06 21 °C 10.8 °C 52 % 9 km/h (22 km/h) 0 mm0 mm 19.2 °C 19.1 °C 19.3 °C 18.9 °C 52550 m 0 cm 1025.9 hPa
14:00 20.9 °C 11.5 °C 55 % 9 km/h (16 km/h) 0 mm0 mm 19.2 °C 19.1 °C 19.3 °C 18.9 °C 19980 m 0 cm 1025.8 hPa
13:54 20.7 °C 11.9 °C 57 % 9 km/h (21 km/h) 0 mm0 mm 19.1 °C 19.1 °C 19.3 °C 18.8 °C 18990 m 0 cm 1025.8 hPa
13:48 20.9 °C 11.8 °C 56 % 13 km/h (24 km/h) 0 mm0 mm 19.1 °C 19.1 °C 19.3 °C 18.8 °C 19870 m 0 cm 1025.9 hPa
13:42 20.9 °C 12.3 °C 58 % 14 km/h (24 km/h) 0 mm0 mm 19.1 °C 19.1 °C 19.3 °C 18.8 °C 51420 m 0 cm 1025.9 hPa
13:36 20.7 °C 11.3 °C 55 % 14 km/h (23 km/h) 0 mm0 mm 19 °C 19.1 °C 19.3 °C 18.8 °C 46620 m 0 cm 1025.8 hPa
13:30 20.7 °C 11.6 °C 56 % 12 km/h (20 km/h) 0 mm0 mm 19 °C 19.1 °C 19.3 °C 18.8 °C 19630 m 0 cm 1025.8 hPa
13:24 20.7 °C 11.1 °C 54 % 13 km/h (21 km/h) 0 mm0 mm 19 °C 19.1 °C 19.4 °C 18.9 °C 19230 m 0 cm 1025.9 hPa
13:18 20.8 °C 11.7 °C 56 % 11 km/h (19 km/h) 0 mm0 mm 19 °C 19.1 °C 19.3 °C 18.8 °C 19850 m 0 cm 1025.9 hPa
13:12 20.4 °C 12.1 °C 59 % 11 km/h (19 km/h) 0 mm0 mm 19 °C 19.1 °C 19.3 °C 18.8 °C 48260 m 0 cm 1025.8 hPa
13:06 20 °C 11.7 °C 59 % 14 km/h (21 km/h) 0 mm0 mm 19 °C 19.1 °C 19.4 °C 18.9 °C 48700 m 0 cm 1025.8 hPa
13:00 20 °C 12 °C 60 % 14 km/h (21 km/h) 0 mm0 mm 18.9 °C 19.1 °C 19.3 °C 18.8 °C 19750 m 0 cm 1025.7 hPa
12:54 20.1 °C 11.6 °C 58 % 10 km/h (21 km/h) 0 mm0 mm 18.9 °C 19.1 °C 19.3 °C 18.8 °C 19750 m 0 cm 1025.8 hPa
12:48 19.8 °C 12.1 °C 61 % 9 km/h (15 km/h) 0 mm0 mm 18.9 °C 19.1 °C 19.4 °C 18.9 °C 50170 m 0 cm 1025.9 hPa
12:42 19.3 °C 11.6 °C 61 % 10 km/h (15 km/h) 0 mm0 mm 18.9 °C 19.1 °C 19.4 °C 18.9 °C 19600 m 0 cm 1026 hPa
12:36 19.8 °C 12.1 °C 61 % 12 km/h (20 km/h) 0 mm0 mm 18.8 °C 19.1 °C 19.4 °C 18.8 °C 18540 m 0 cm 1026 hPa
12:30 20 °C 12 °C 60 % 12 km/h (20 km/h) 0 mm0 mm 18.8 °C 19.1 °C 19.4 °C 18.8 °C 18760 m 0 cm 1025.8 hPa
12:24 19.2 °C 12 °C 63 % 9 km/h (18 km/h) 0 mm0 mm 18.8 °C 19.1 °C 19.3 °C 18.8 °C 37040 m 0 cm 1025.9 hPa
12:18 18.8 °C 12.5 °C 67 % 10 km/h (16 km/h) 0 mm0 mm 18.8 °C 19.1 °C 19.4 °C 18.9 °C 19940 m 0 cm 1026 hPa
12:12 18.5 °C 12.3 °C 67 % 9 km/h (17 km/h) 0 mm0 mm 18.8 °C 19.1 °C 19.4 °C 18.9 °C 19650 m 0 cm 1025.9 hPa
12:06 18.9 °C 12.4 °C 66 % 9 km/h (17 km/h) 0 mm0 mm 18.8 °C 19.1 °C 19.4 °C 18.9 °C 19650 m 0 cm 1026 hPa
12:00 19 °C 11.8 °C 63 % 9 km/h (18 km/h) 0 mm0 mm 18.8 °C 19.1 °C 19.4 °C 18.9 °C 39970 m 0 cm 1025.9 hPa 7 Octas
11:54 19.3 °C 12.6 °C 65 % 12 km/h (19 km/h) 0 mm0 mm 18.8 °C 19.1 °C 19.4 °C 18.8 °C 37390 m 0 cm 1025.8 hPa
11:48 18.9 °C 11.7 °C 63 % 13 km/h (19 km/h) 0 mm0 mm 18.8 °C 19.1 °C 19.4 °C 18.8 °C 37520 m 0 cm 1025.8 hPa
11:42 19.1 °C 13.1 °C 68 % 15 km/h (23 km/h) 0 mm0 mm 18.8 °C 19.1 °C 19.4 °C 18.8 °C 19690 m 0 cm 1025.8 hPa
11:36 18.1 °C 12.1 °C 68 % 15 km/h (23 km/h) 0 mm0 mm 18.7 °C 19.1 °C 19.4 °C 18.9 °C 45080 m 0 cm 1025.7 hPa
11:30 18 °C 12.2 °C 69 % 13 km/h (22 km/h) 0 mm0 mm 18.7 °C 19.1 °C 19.4 °C 18.9 °C 19720 m 0 cm 1025.8 hPa
11:24 18.5 °C 12.3 °C 67 % 17 km/h (25 km/h) 0 mm0 mm 18.7 °C 19.1 °C 19.4 °C 18.9 °C 19720 m 0 cm 1025.7 hPa
11:18 17.9 °C 12.1 °C 69 % 18 km/h (26 km/h) 0 mm0 mm 18.7 °C 19.1 °C 19.4 °C 18.9 °C 45560 m 0 cm 1025.8 hPa
11:12 18.5 °C 12.3 °C 67 % 16 km/h (26 km/h) 0 mm0 mm 18.7 °C 19.1 °C 19.4 °C 18.9 °C 19620 m 0 cm 1025.7 hPa
11:06 17.5 °C 12 °C 70 % 14 km/h (20 km/h) 0 mm0 mm 18.7 °C 19.1 °C 19.4 °C 18.8 °C 19670 m 0 cm 1025.7 hPa
11:00 17.6 °C 12.3 °C 71 % 11 km/h (20 km/h) 0 mm0 mm 18.7 °C 19.1 °C 19.4 °C 18.8 °C 19760 m 0 cm 1025.7 hPa
10:54 18.1 °C 12.8 °C 71 % 11 km/h (19 km/h) 0 mm0 mm 18.7 °C 19.1 °C 19.4 °C 18.9 °C 18820 m 0 cm 1025.6 hPa
10:48 17.8 °C 13.1 °C 74 % 9 km/h (19 km/h) 0 mm0 mm 18.7 °C 19.1 °C 19.4 °C 18.8 °C 19070 m 0 cm 1025.7 hPa
10:42 17.3 °C 13 °C 76 % 9 km/h (15 km/h) 0 mm0 mm 18.7 °C 19.2 °C 19.4 °C 18.9 °C 19960 m 0 cm 1025.6 hPa
10:36 17.6 °C 13.5 °C 77 % 9 km/h (15 km/h) 0 mm0 mm 18.7 °C 19.2 °C 19.4 °C 18.9 °C 19730 m 0 cm 1025.6 hPa
10:30 17.2 °C 13.1 °C 77 % 10 km/h (15 km/h) 0 mm0 mm 18.7 °C 19.2 °C 19.4 °C 18.9 °C 19730 m 0 cm 1025.5 hPa
10:24 17.2 °C 13.5 °C 79 % 9 km/h (14 km/h) 0 mm0 mm 18.7 °C 19.2 °C 19.4 °C 18.9 °C 19830 m 0 cm 1025.5 hPa
10:18 16.9 °C 13.4 °C 80 % 10 km/h (15 km/h) 0 mm0 mm 18.7 °C 19.2 °C 19.4 °C 18.8 °C 19240 m 0 cm 1025.4 hPa
10:12 16.8 °C 13.3 °C 80 % 9 km/h (15 km/h) 0 mm0 mm 18.7 °C 19.2 °C 19.4 °C 18.8 °C 19230 m 0 cm 1025.3 hPa
10:06 16.7 °C 13.2 °C 80 % 8 km/h (14 km/h) 0 mm0 mm 18.7 °C 19.2 °C 19.4 °C 18.9 °C 19150 m 0 cm 1025.3 hPa
10:00 16.6 °C 13.9 °C 84 % 8 km/h (13 km/h) 0 mm0 mm 18.7 °C 19.2 °C 19.4 °C 18.8 °C 18880 m 0 cm 1025.2 hPa
09:54 16.2 °C 13.3 °C 83 % 8 km/h (14 km/h) 0 mm0 mm 18.7 °C 19.2 °C 19.4 °C 18.9 °C 19790 m 0 cm 1025.3 hPa
09:48 16 °C 13.7 °C 86 % 8 km/h (14 km/h) 0 mm0 mm 18.8 °C 19.2 °C 19.4 °C 18.8 °C 19470 m 0 cm 1025.2 hPa
09:42 15.7 °C 13.9 °C 89 % 8 km/h (12 km/h) 0 mm0 mm 18.7 °C 19.2 °C 19.4 °C 18.8 °C 17870 m 0 cm 1025.2 hPa
09:36 15.4 °C 13.2 °C 87 % 9 km/h (13 km/h) 0 mm0 mm 18.8 °C 19.3 °C 19.4 °C 18.8 °C 18070 m 0 cm 1025.1 hPa
09:30 15.3 °C 13.7 °C 90 % 9 km/h (14 km/h) 0 mm0 mm 18.8 °C 19.3 °C 19.4 °C 18.8 °C 17520 m 0 cm 1025 hPa
09:24 14.9 °C 13.3 °C 90 % 10 km/h (14 km/h) 0 mm0 mm 18.8 °C 19.3 °C 19.4 °C 18.9 °C 17450 m 0 cm 1025 hPa
09:18 14.9 °C 13.8 °C 93 % 9 km/h (13 km/h) 0 mm0 mm 18.8 °C 19.3 °C 19.4 °C 18.9 °C 18070 m 0 cm 1025 hPa
09:12 14.6 °C 13.3 °C 92 % 8 km/h (12 km/h) 0 mm0 mm 18.8 °C 19.3 °C 19.4 °C 18.9 °C 18640 m 0 cm 1024.9 hPa
09:06 14.3 °C 13.2 °C 93 % 7 km/h (12 km/h) 0 mm0 mm 18.8 °C 19.3 °C 19.4 °C 18.8 °C 17240 m 0 cm 1024.9 hPa
09:00 14.2 °C 12.9 °C 92 % 7 km/h (11 km/h) 0 mm0 mm 18.8 °C 19.3 °C 19.4 °C 18.8 °C 17550 m 0 cm 1024.7 hPa 7 Octas
08:54 14.3 °C 13 °C 92 % 7 km/h (12 km/h) 0 mm0 mm 18.9 °C 19.4 °C 19.4 °C 18.9 °C 17240 m 0 cm 1024.7 hPa
08:48 14.3 °C 13 °C 92 % 7 km/h (12 km/h) 0 mm0 mm 18.9 °C 19.4 °C 19.4 °C 18.9 °C 18190 m 0 cm 1024.7 hPa
08:42 14.4 °C 13.3 °C 93 % 7 km/h (10 km/h) 0 mm0 mm 18.9 °C 19.4 °C 19.4 °C 18.8 °C 19000 m 0 cm 1024.6 hPa
08:36 14.2 °C 13.1 °C 93 % 6 km/h (9 km/h) 0 mm0 mm 18.9 °C 19.4 °C 19.4 °C 18.9 °C 16200 m 0 cm 1024.6 hPa
08:30 14.1 °C 13.1 °C 94 % 4 km/h (9 km/h) 0 mm0 mm 18.9 °C 19.4 °C 19.4 °C 18.8 °C 14910 m 0 cm 1024.6 hPa
08:24 13.9 °C 13.1 °C 95 % 6 km/h (10 km/h) 0 mm0 mm 18.9 °C 19.5 °C 19.4 °C 18.9 °C 15850 m 0 cm 1024.6 hPa
08:18 13.6 °C 13 °C 96 % 7 km/h (11 km/h) 0 mm0 mm 19 °C 19.4 °C 19.3 °C 18.8 °C 15120 m 0 cm 1024.6 hPa
08:12 13.4 °C 12.8 °C 96 % 7 km/h (11 km/h) 0 mm0 mm 19 °C 19.5 °C 19.4 °C 18.8 °C 15260 m 0 cm 1024.5 hPa
08:06 13.2 °C 12.6 °C 96 % 8 km/h (10 km/h) 0 mm0 mm 19 °C 19.5 °C 19.4 °C 18.9 °C 16080 m 0 cm 1024.4 hPa
08:00 13.1 °C 12.6 °C 97 % 9 km/h (11 km/h) 0 mm0 mm 19 °C 19.5 °C 19.4 °C 18.8 °C 16050 m 0 cm 1024.3 hPa
07:54 12.9 °C 12.4 °C 97 % 9 km/h (11 km/h) 0 mm0 mm 19.1 °C 19.5 °C 19.4 °C 18.8 °C 16600 m 0 cm 1024.3 hPa
07:48 12.9 °C 12.4 °C 97 % 7 km/h (9 km/h) 0 mm0 mm 19.1 °C 19.5 °C 19.4 °C 18.8 °C 15790 m 0 cm 1024.2 hPa
07:42 12.9 °C 12.4 °C 97 % 7 km/h (10 km/h) 0 mm0 mm 19.1 °C 19.5 °C 19.4 °C 18.9 °C 15440 m 0 cm 1024.2 hPa
07:36 13 °C 12.5 °C 97 % 8 km/h (10 km/h) 0 mm0 mm 19.1 °C 19.6 °C 19.4 °C 18.9 °C 15300 m 0 cm 1024.1 hPa
07:30 12.9 °C 12.4 °C 97 % 8 km/h (10 km/h) 0 mm0 mm 19.1 °C 19.5 °C 19.4 °C 18.9 °C 14580 m 0 cm 1024 hPa
07:24 12.8 °C 12.3 °C 97 % 8 km/h (9 km/h) 0 mm0 mm 19.2 °C 19.6 °C 19.4 °C 18.9 °C 14470 m 0 cm 1023.9 hPa
07:18 12.8 °C 12.2 °C 96 % 8 km/h (9 km/h) 0 mm0 mm 19.2 °C 19.5 °C 19.4 °C 18.8 °C 14970 m 0 cm 1023.8 hPa
07:12 13 °C 12.5 °C 97 % 8 km/h (10 km/h) 0 mm0 mm 19.2 °C 19.6 °C 19.4 °C 18.9 °C 14820 m 0 cm 1023.7 hPa
07:06 13 °C 12.5 °C 97 % 7 km/h (10 km/h) 0 mm0 mm 19.2 °C 19.6 °C 19.4 °C 18.9 °C 14910 m 0 cm 1023.6 hPa
07:00 12.8 °C 12.2 °C 96 % 6 km/h (9 km/h) 0 mm0 mm 19.2 °C 19.6 °C 19.4 °C 18.8 °C 15010 m 0 cm 1023.6 hPa
06:54 13 °C 12.4 °C 96 % 6 km/h (10 km/h) 0 mm0 mm 19.2 °C 19.6 °C 19.4 °C 18.8 °C 15840 m 0 cm 1023.6 hPa
06:48 12.9 °C 12 °C 94 % 7 km/h (10 km/h) 0 mm0 mm 19.2 °C 19.6 °C 19.4 °C 18.9 °C 15970 m 0 cm 1023.6 hPa
06:42 13.2 °C 12.3 °C 94 % 8 km/h (11 km/h) 0 mm0 mm 19.3 °C 19.6 °C 19.4 °C 18.8 °C 17150 m 0 cm 1023.6 hPa
06:36 13.6 °C 12.8 °C 95 % 8 km/h (10 km/h) 0 mm0 mm 19.3 °C 19.6 °C 19.4 °C 18.8 °C 17000 m 0 cm 1023.6 hPa
06:30 13.6 °C 12.8 °C 95 % 8 km/h (10 km/h) 0 mm0 mm 19.3 °C 19.6 °C 19.4 °C 18.9 °C 17480 m 0 cm 1023.5 hPa
06:24 13.8 °C 13 °C 95 % 8 km/h (11 km/h) 0 mm0 mm 19.3 °C 19.6 °C 19.3 °C 18.8 °C 18220 m 0 cm 1023.2 hPa
06:18 13.8 °C 13 °C 95 % 8 km/h (11 km/h) 0 mm0 mm 19.4 °C 19.6 °C 19.4 °C 18.8 °C 17990 m 0 cm 1023.2 hPa
06:12 13.7 °C 12.9 °C 95 % 8 km/h (10 km/h) 0 mm0 mm 19.4 °C 19.7 °C 19.4 °C 18.9 °C 17760 m 0 cm 1023.3 hPa
06:06 13.6 °C 12.7 °C 94 % 8 km/h (9 km/h) 0 mm0 mm 19.4 °C 19.6 °C 19.4 °C 18.8 °C 18060 m 0 cm 1023.2 hPa
06:00 13.8 °C 13 °C 95 % 8 km/h (10 km/h) 0 mm0 mm 19.4 °C 19.7 °C 19.4 °C 18.8 °C 17880 m 0 cm 1023.1 hPa
05:54 13.8 °C 12.9 °C 94 % 8 km/h (13 km/h) 0 mm0 mm 19.4 °C 19.7 °C 19.4 °C 18.9 °C 17710 m 0 cm 1023.1 hPa
05:48 14.2 °C 13.4 °C 95 % 9 km/h (13 km/h) 0 mm0 mm 19.4 °C 19.7 °C 19.4 °C 18.9 °C 17950 m 0 cm 1023.1 hPa
05:42 14 °C 13.2 °C 95 % 8 km/h (13 km/h) 0 mm0 mm 19.5 °C 19.7 °C 19.4 °C 18.9 °C 18590 m 0 cm 1023.1 hPa
05:36 14 °C 13.2 °C 95 % 9 km/h (14 km/h) 0 mm0 mm 19.5 °C 19.7 °C 19.4 °C 18.9 °C 18620 m 0 cm 1023 hPa
05:30 13.9 °C 12.9 °C 94 % 11 km/h (15 km/h) 0 mm0 mm 19.5 °C 19.7 °C 19.4 °C 18.8 °C 17950 m 0 cm 1023 hPa
05:24 14.1 °C 13.1 °C 94 % 11 km/h (15 km/h) 0 mm0 mm 19.5 °C 19.7 °C 19.4 °C 18.9 °C 17910 m 0 cm 1023 hPa
05:18 14.2 °C 13.2 °C 94 % 10 km/h (14 km/h) 0 mm0 mm 19.5 °C 19.7 °C 19.4 °C 18.8 °C 18320 m 0 cm 1023 hPa
05:12 14.4 °C 13.4 °C 94 % 9 km/h (13 km/h) 0 mm0 mm 19.6 °C 19.7 °C 19.4 °C 18.8 °C 18950 m 0 cm 1022.9 hPa
05:06 14.4 °C 13.3 °C 93 % 10 km/h (14 km/h) 0 mm0 mm 19.5 °C 19.7 °C 19.4 °C 18.8 °C 19330 m 0 cm 1022.8 hPa
05:00 14.5 °C 13.4 °C 93 % 10 km/h (15 km/h) 0 mm0 mm 19.6 °C 19.7 °C 19.4 °C 18.8 °C 19680 m 0 cm 1022.8 hPa
04:54 14.6 °C 13.3 °C 92 % 10 km/h (15 km/h) 0 mm0 mm 19.6 °C 19.7 °C 19.4 °C 18.8 °C 19770 m 0 cm 1022.7 hPa
04:48 14.9 °C 13.6 °C 92 % 11 km/h (16 km/h) 0 mm0 mm 19.6 °C 19.8 °C 19.4 °C 18.9 °C 19600 m 0 cm 1022.6 hPa
04:42 15 °C 13.9 °C 93 % 11 km/h (16 km/h) 0 mm0 mm 19.6 °C 19.8 °C 19.4 °C 18.8 °C 19820 m 0 cm 1022.6 hPa
04:36 14.9 °C 13.6 °C 92 % 10 km/h (14 km/h) 0 mm0 mm 19.6 °C 19.8 °C 19.4 °C 18.8 °C 31510 m 0 cm 1022.6 hPa
04:30 15 °C 13.7 °C 92 % 11 km/h (14 km/h) 0 mm0 mm 19.6 °C 19.8 °C 19.3 °C 18.8 °C 19870 m 0 cm 1022.6 hPa
04:24 15.1 °C 13.8 °C 92 % 10 km/h (14 km/h) 0 mm0 mm 19.6 °C 19.8 °C 19.4 °C 18.8 °C 19870 m 0 cm 1022.5 hPa
04:18 15 °C 13.7 °C 92 % 10 km/h (13 km/h) 0 mm0 mm 19.6 °C 19.8 °C 19.3 °C 18.8 °C 33340 m 0 cm 1022.5 hPa
04:12 15.2 °C 13.9 °C 92 % 10 km/h (16 km/h) 0 mm0 mm 19.7 °C 19.8 °C 19.4 °C 18.8 °C 19900 m 0 cm 1022.3 hPa
04:06 15.3 °C 13.8 °C 91 % 9 km/h (15 km/h) 0 mm0 mm 19.7 °C 19.8 °C 19.4 °C 18.9 °C 35020 m 0 cm 1022.3 hPa
04:00 15.4 °C 13.9 °C 91 % 10 km/h (17 km/h) 0 mm0 mm 19.7 °C 19.8 °C 19.4 °C 18.8 °C 35340 m 0 cm 1022.4 hPa
03:54 15.5 °C 14 °C 91 % 10 km/h (14 km/h) 0 mm0 mm 19.7 °C 19.8 °C 19.3 °C 18.8 °C 36120 m 0 cm 1022.3 hPa
03:48 15.6 °C 14.1 °C 91 % 11 km/h (15 km/h) 0 mm0 mm 19.7 °C 19.8 °C 19.4 °C 18.9 °C 35940 m 0 cm 1022.2 hPa
03:42 15.8 °C 14.3 °C 91 % 12 km/h (17 km/h) 0 mm0 mm 19.7 °C 19.8 °C 19.3 °C 18.8 °C 34890 m 0 cm 1022.3 hPa
03:36 15.8 °C 14.3 °C 91 % 12 km/h (17 km/h) 0 mm0 mm 19.7 °C 19.8 °C 19.4 °C 18.9 °C 33970 m 0 cm 1022.3 hPa
03:30 15.9 °C 14.4 °C 91 % 13 km/h (18 km/h) 0 mm0 mm 19.7 °C 19.8 °C 19.3 °C 18.8 °C 34280 m 0 cm 1022.3 hPa
03:24 15.9 °C 14.4 °C 91 % 13 km/h (19 km/h) 0 mm0 mm 19.7 °C 19.8 °C 19.3 °C 18.8 °C 34200 m 0 cm 1022.2 hPa
03:18 16 °C 14.5 °C 91 % 13 km/h (19 km/h) 0 mm0 mm 19.8 °C 19.9 °C 19.4 °C 18.9 °C 19780 m 0 cm 1022.1 hPa
03:12 16.1 °C 14.5 °C 90 % 13 km/h (17 km/h) 0 mm0 mm 19.8 °C 19.8 °C 19.4 °C 18.8 °C 19780 m 0 cm 1022.1 hPa
03:06 16.1 °C 14.5 °C 90 % 12 km/h (17 km/h) 0 mm0 mm 19.8 °C 19.8 °C 19.3 °C 18.8 °C 33200 m 0 cm 1022.1 hPa
03:00 16.2 °C 14.6 °C 90 % 12 km/h (19 km/h) 0 mm0 mm 19.8 °C 19.9 °C 19.4 °C 18.9 °C 19980 m 0 cm 1022.1 hPa 8 Octas
02:54 16.3 °C 14.5 °C 89 % 10 km/h (15 km/h) 0 mm0 mm 19.8 °C 19.9 °C 19.3 °C 18.8 °C 19980 m 0 cm 1022 hPa
02:48 16.3 °C 14.5 °C 89 % 11 km/h (15 km/h) 0 mm0 mm 19.8 °C 19.9 °C 19.3 °C 18.9 °C 34310 m 0 cm 1022 hPa
02:42 16.3 °C 14.7 °C 90 % 12 km/h (15 km/h) 0 mm0 mm 19.8 °C 19.9 °C 19.3 °C 18.9 °C 34070 m 0 cm 1022 hPa
02:36 16.3 °C 14.5 °C 89 % 11 km/h (15 km/h) 0 mm0 mm 19.8 °C 19.9 °C 19.3 °C 18.8 °C 33760 m 0 cm 1022 hPa
02:30 16.4 °C 14.6 °C 89 % 10 km/h (15 km/h) 0 mm0 mm 19.8 °C 19.9 °C 19.3 °C 18.8 °C 33950 m 0 cm 1022 hPa
02:24 16.4 °C 14.6 °C 89 % 11 km/h (15 km/h) 0 mm0 mm 19.9 °C 19.9 °C 19.3 °C 18.8 °C 34210 m 0 cm 1021.9 hPa
02:18 16.5 °C 14.7 °C 89 % 11 km/h (15 km/h) 0 mm0 mm 19.9 °C 19.9 °C 19.3 °C 18.8 °C 19930 m 0 cm 1021.7 hPa
02:12 16.5 °C 14.5 °C 88 % 10 km/h (14 km/h) 0 mm0 mm 19.9 °C 19.9 °C 19.3 °C 18.9 °C 34180 m 0 cm 1021.8 hPa
02:06 16.6 °C 14.6 °C 88 % 9 km/h (12 km/h) 0 mm0 mm 19.9 °C 19.9 °C 19.3 °C 18.8 °C 34150 m 0 cm 1021.8 hPa
02:00 16.6 °C 14.6 °C 88 % 9 km/h (13 km/h) 0 mm0 mm 19.9 °C 19.9 °C 19.3 °C 18.8 °C 34550 m 0 cm 1021.7 hPa 8 Octas
01:54 16.7 °C 14.5 °C 87 % 12 km/h (18 km/h) 0 mm0 mm 19.9 °C 19.9 °C 19.3 °C 18.8 °C 34440 m 0 cm 1021.5 hPa
01:48 16.7 °C 14.7 °C 88 % 12 km/h (18 km/h) 0 mm0 mm 19.9 °C 19.9 °C 19.3 °C 18.8 °C 20000 m 0 cm 1021.5 hPa
01:42 16.7 °C 14.7 °C 88 % 12 km/h (18 km/h) 0 mm0 mm 19.9 °C 19.9 °C 19.3 °C 18.8 °C 35880 m 0 cm 1021.3 hPa
01:36 16.8 °C 14.8 °C 88 % 13 km/h (18 km/h) 0 mm0 mm 19.9 °C 19.9 °C 19.3 °C 18.9 °C 19840 m 0 cm 1021.2 hPa
01:30 16.7 °C 14.9 °C 89 % 13 km/h (22 km/h) 0 mm0 mm 20 °C 19.9 °C 19.3 °C 18.9 °C 19970 m 0 cm 1021.3 hPa
01:24 16.8 °C 15.1 °C 90 % 12 km/h (21 km/h) 0 mm0 mm 20 °C 19.9 °C 19.3 °C 18.9 °C 19970 m 0 cm 1021.3 hPa
01:18 16.9 °C 15.1 °C 89 % 10 km/h (16 km/h) 0 mm0 mm 20 °C 19.9 °C 19.3 °C 18.8 °C 38220 m 0 cm 1021.3 hPa
01:12 17.1 °C 15.3 °C 89 % 11 km/h (18 km/h) 0 mm0 mm 20 °C 19.9 °C 19.3 °C 18.8 °C 39230 m 0 cm 1021.3 hPa
01:06 17.1 °C 15.4 °C 90 % 14 km/h (21 km/h) 0 mm0 mm 20 °C 20 °C 19.3 °C 18.8 °C 40180 m 0 cm 1021.3 hPa
01:00 17.1 °C 15.6 °C 91 % 14 km/h (22 km/h) 0 mm0 mm 20 °C 20 °C 19.3 °C 18.8 °C 43020 m 0 cm 1021.3 hPa 8 Octas
00:54 17.3 °C 15.8 °C 91 % 12 km/h (22 km/h) 0 mm0 mm 20 °C 20 °C 19.3 °C 18.9 °C 46410 m 0 cm 1021.4 hPa
00:48 17.4 °C 15.9 °C 91 % 11 km/h (18 km/h) 0 mm0 mm 20 °C 20 °C 19.3 °C 18.8 °C 49240 m 0 cm 1021.4 hPa
00:42 17.5 °C 16 °C 91 % 10 km/h (14 km/h) 0 mm0 mm 20 °C 20 °C 19.3 °C 18.8 °C 51150 m 0 cm 1021.4 hPa
00:36 17.5 °C 16.2 °C 92 % 10 km/h (14 km/h) 0 mm0 mm 20.1 °C 20 °C 19.3 °C 18.8 °C 52880 m 0 cm 1021.5 hPa
00:30 17.5 °C 16.5 °C 94 % 11 km/h (16 km/h) 0 mm0 mm 20.1 °C 20 °C 19.3 °C 18.8 °C 52620 m 0 cm 1021.4 hPa
00:24 17.6 °C 16.6 °C 94 % 12 km/h (21 km/h) 0 mm0 mm 20.1 °C 20 °C 19.3 °C 18.8 °C 53060 m 0 cm 1021.4 hPa
00:18 17.5 °C 16.5 °C 94 % 13 km/h (21 km/h) 0 mm0 mm 20.1 °C 20 °C 19.3 °C 18.8 °C 54510 m 0 cm 1021.3 hPa
00:12 17.6 °C 16.6 °C 94 % 12 km/h (17 km/h) 0 mm0 mm 20.1 °C 20 °C 19.3 °C 18.8 °C 55120 m 0 cm 1021.2 hPa
00:06 17.6 °C 16.5 °C 93 % 10 km/h (15 km/h) 0 mm0 mm 20.1 °C 20 °C 19.3 °C 18.8 °C 58190 m 0 cm 1021.2 hPa
00:00 17.6 °C 16.5 °C 93 % 10 km/h (17 km/h) 0 mm0 mm 20.1 °C 20 °C 19.3 °C 18.8 °C 55040 m 0 cm 1021.2 hPa 8 Octas

Données via Météo-France

Relevés météo à Evreux-Huest

Cette page rassemble les observations de la station de Evreux-Huest : température, humidité, vent, précipitations et pression atmosphérique. Les graphiques facilitent le suivi de la journée, tandis que le tableau donne accès aux mesures horaires et infra-horaires disponibles.

Pour replacer ces mesures dans leur contexte, consultez la climatologie de Evreux-Huest ainsi que ses normales et records. Retrouvez aussi la carte des observations météo en temps réel.